Terminal Aerodrome Forecast
Issued by NWS

Home | Current Version | Previous Version | Text Only | Print | Product List | Glossary On
Versions: 1 2 3 4 5 6 7 8 9 10 11 12 13 14 15 16 17
000
FTUS45 KREV 221739
TAFCXP
TAF
KCXP 221739Z 2218/2318 24009KT P6SM SCT100
     FM221900 28011G22KT P6SM SCT040 BKN100
     FM230200 26005KT P6SM SCT070 BKN120=

USA.gov is the U.S. government's official web portal to all federal, state and local government web resources and services.